Time;durP1;ratioP1;P1;durP2;ratioP2;P2;SDS_P1;SDS_P2;PMS_P1;PMS_P2;Temp;Humidity;BMP_temperature;BMP_pressure;BME280_temperature;BME280_humidity;BME280_pressure;Samples;Min_cycle;Max_cycle;Signal;HPM_P1;HPM_P2
2022/01/24 00:01:31;;;;;;;7.17;6.47;;;;;;;0.79;100.00;98012.63;5113929;28;21244;-76
2022/01/24 00:03:58;;;;;;;9.40;6.03;;;;;;;1.01;100.00;98023.34;5112300;28;20488;-75
2022/01/24 00:06:26;;;;;;;6.37;5.77;;;;;;;0.82;100.00;98011.44;5112470;28;20477;-76
2022/01/24 00:08:53;;;;;;;7.27;6.57;;;;;;;1.01;100.00;98044.19;5095394;28;20450;-76
2022/01/24 00:11:25;;;;;;;6.80;6.10;;;;;;;0.69;100.00;97986.38;5095228;28;20523;-76
2022/01/24 00:27:25;;;;;;;6.10;5.50;;;;;;;1.04;100.00;98012.50;5114599;28;20450;-76
2022/01/24 00:29:52;;;;;;;7.17;6.47;;;;;;;1.06;100.00;98033.09;5112144;28;20439;-74
2022/01/24 00:32:19;;;;;;;6.60;6.00;;;;;;;1.02;100.00;98022.34;5111948;28;20477;-74
2022/01/24 00:34:45;;;;;;;7.43;5.93;;;;;;;1.09;100.00;98020.44;5096546;28;20533;-76
2022/01/24 00:37:12;;;;;;;6.03;5.43;;;;;;;1.15;100.00;98014.34;5112438;28;20499;-75
2022/01/24 00:39:39;;;;;;;7.37;5.63;;;;;;;1.07;100.00;98022.47;5112676;28;20458;-74
2022/01/24 00:45:05;;;;;;;6.80;6.20;;;;;;;1.21;100.00;98038.72;5113162;28;20509;-74
2022/01/24 00:53:36;;;;;;;7.00;5.70;;;;;;;1.03;100.00;98017.94;5111788;28;21069;-74
2022/01/24 00:56:04;;;;;;;8.70;6.07;;;;;;;0.86;100.00;98013.34;5111583;28;20463;-76
2022/01/24 00:58:31;;;;;;;6.80;6.20;;;;;;;1.07;100.00;98029.47;5112597;28;20962;-76
2022/01/24 01:00:59;;;;;;;6.83;6.23;;;;;;;1.02;100.00;98026.75;5110832;28;20950;-74
2022/01/24 01:03:26;;;;;;;6.80;5.70;;;;;;;0.93;100.00;98010.66;5094927;28;20521;-74
2022/01/24 01:06:08;;;;;;;8.27;6.87;;;;;;;1.04;100.00;98037.75;5111741;28;20476;-74
2022/01/24 01:19:58;;;;;;;8.33;7.13;;;;;;;0.85;100.00;98006.56;5112414;28;20422;-75
2022/01/24 01:22:25;;;;;;;13.53;7.30;;;;;;;0.92;100.00;98023.88;5111180;28;20479;-76
2022/01/24 01:24:54;;;;;;;7.07;6.37;;;;;;;0.92;100.00;98022.06;5093664;28;20977;-76
2022/01/24 01:27:27;;;;;;;6.43;5.77;;;;;;;0.79;100.00;98006.63;5110632;28;20494;-76
2022/01/24 01:33:00;;;;;;;7.97;7.00;;;;;;;0.94;100.00;98029.69;5112843;28;20462;-75
2022/01/24 01:35:36;;;;;;;8.57;7.67;;;;;;;0.87;100.00;97977.69;5110927;28;21018;-76
2022/01/24 01:52:18;;;;;;;8.17;7.23;;;;;;;1.11;100.00;98022.81;5113051;28;20450;-74
2022/01/24 01:56:53;;;;;;;8.63;7.73;;;;;;;0.85;100.00;97979.75;5111947;28;20513;-76
2022/01/24 01:59:19;;;;;;;9.40;6.80;;;;;;;0.94;100.00;98006.25;5110566;28;20780;-76
2022/01/24 02:01:46;;;;;;;10.57;7.83;;;;;;;0.70;100.00;97961.13;5110624;28;20481;-76
2022/01/24 02:04:14;;;;;;;8.97;7.30;;;;;;;0.75;100.00;97969.06;5110371;28;20802;-76
2022/01/24 02:06:42;;;;;;;8.57;7.70;;;;;;;0.67;100.00;97949.38;5112187;28;20445;-74
2022/01/24 02:09:11;;;;;;;8.67;7.40;;;;;;;0.83;100.00;97968.75;5111084;28;20493;-74
2022/01/24 02:11:38;;;;;;;7.00;6.17;;;;;;;0.66;100.00;97931.34;5093954;28;20467;-74
2022/01/24 02:14:14;;;;;;;8.27;6.23;;;;;;;0.91;100.00;97978.03;5097643;28;20426;-74
2022/01/24 02:19:32;;;;;;;9.87;7.60;;;;;;;0.69;100.00;97928.31;5116076;28;20430;-74
2022/01/24 02:24:41;;;;;;;7.03;6.40;;;;;;;1.05;100.00;97985.44;5116174;28;20430;-74
2022/01/24 02:27:09;;;;;;;7.47;6.43;;;;;;;1.05;100.00;97977.63;5116127;28;20966;-74
2022/01/24 02:32:08;;;;;;;7.20;6.50;;;;;;;0.92;100.00;97979.63;5114566;28;20481;-74
2022/01/24 02:34:39;;;;;;;7.83;7.03;;;;;;;1.10;100.00;97990.78;5097837;28;20492;-74
2022/01/24 02:37:10;;;;;;;7.40;6.70;;;;;;;1.08;100.00;97995.41;5116091;28;20545;-74
2022/01/24 02:50:49;;;;;;;6.77;6.17;;;;;;;0.98;100.00;97976.94;5113850;28;20430;-76
2022/01/24 02:53:09;;;;;;;7.43;6.67;;;;;;;0.91;100.00;97971.03;5112716;28;20466;-76
2022/01/24 02:55:38;;;;;;;8.93;7.13;;;;;;;0.76;100.00;97949.81;5114941;28;20476;-76
2022/01/24 02:58:05;;;;;;;11.13;7.63;;;;;;;0.92;100.00;97975.22;5113651;28;20553;-76
2022/01/24 03:00:32;;;;;;;11.00;7.70;;;;;;;0.94;100.00;97978.41;5096467;28;20481;-76
2022/01/24 03:02:59;;;;;;;7.67;6.97;;;;;;;0.85;100.00;97964.13;5096648;28;20808;-76
2022/01/24 03:05:26;;;;;;;9.93;7.37;;;;;;;0.92;100.00;97964.78;5096607;28;20434;-76
2022/01/24 03:07:53;;;;;;;8.03;6.07;;;;;;;0.99;100.00;97981.13;5113255;28;21048;-76
2022/01/24 03:10:53;;;;;;;9.87;6.80;;;;;;;0.94;100.00;97965.38;5113799;28;20437;-74
2022/01/24 03:15:50;;;;;;;7.23;6.50;;;;;;;0.71;100.00;97939.28;5113885;28;20435;-74
2022/01/24 03:18:17;;;;;;;7.67;6.87;;;;;;;0.91;100.00;97965.81;5096863;28;20523;-74
2022/01/24 03:20:45;;;;;;;8.30;7.50;;;;;;;0.89;100.00;97971.25;5113407;28;20453;-74
2022/01/24 03:23:13;;;;;;;8.77;7.80;;;;;;;0.74;100.00;97939.63;5113258;28;20434;-73
2022/01/24 03:25:40;;;;;;;9.30;7.60;;;;;;;0.81;100.00;97942.16;5113744;28;20521;-74
2022/01/24 03:28:07;;;;;;;6.70;6.10;;;;;;;0.86;100.00;97956.06;5096941;28;20456;-75
2022/01/24 03:30:35;;;;;;;9.30;6.30;;;;;;;0.71;100.00;97916.66;5096532;28;20439;-74
2022/01/24 03:33:03;;;;;;;8.63;6.00;;;;;;;0.97;100.00;97961.53;5114936;27;20494;-74
2022/01/24 03:35:31;;;;;;;9.27;7.17;;;;;;;1.00;100.00;97943.66;5114913;28;20430;-74
2022/01/24 03:37:58;;;;;;;10.87;9.50;;;;;;;0.91;100.00;97957.22;5096336;28;20486;-74
2022/01/24 03:40:25;;;;;;;8.33;7.50;;;;;;;0.72;100.00;97928.66;5114556;28;20434;-75
2022/01/24 03:42:52;;;;;;;8.53;7.63;;;;;;;0.87;100.00;97955.06;5096647;28;20496;-74
2022/01/24 03:48:23;;;;;;;9.67;8.53;;;;;;;0.92;100.00;97956.97;5100136;28;20455;-74
2022/01/24 03:50:52;;;;;;;9.63;7.70;;;;;;;0.77;100.00;97930.59;5113203;28;20454;-74
2022/01/24 03:53:19;;;;;;;9.20;8.10;;;;;;;0.88;100.00;97954.03;5114038;28;20827;-74
2022/01/24 03:55:45;;;;;;;9.07;8.13;;;;;;;0.87;100.00;97949.06;5096164;28;20439;-74
2022/01/24 03:58:12;;;;;;;9.27;8.10;;;;;;;0.67;100.00;97925.94;5113200;28;20505;-74
2022/01/24 04:00:39;;;;;;;9.10;7.87;;;;;;;0.94;100.00;97954.19;5096262;28;20545;-74
2022/01/24 04:03:05;;;;;;;9.07;7.17;;;;;;;0.98;100.00;97956.09;5113041;28;20446;-74
2022/01/24 04:05:32;;;;;;;8.83;6.60;;;;;;;0.96;100.00;97958.16;5112867;28;20438;-74
2022/01/24 04:07:59;;;;;;;9.27;8.27;;;;;;;0.77;100.00;97935.78;5112453;28;20490;-74
2022/01/24 04:10:26;;;;;;;9.20;7.20;;;;;;;0.76;100.00;97924.59;5113121;28;20448;-74
2022/01/24 04:12:53;;;;;;;8.53;7.63;;;;;;;0.92;100.00;97961.41;5112578;28;20900;-74
2022/01/24 04:15:44;;;;;;;9.27;7.63;;;;;;;0.92;100.00;97951.78;5112857;28;20414;-74
2022/01/24 04:18:29;;;;;;;10.00;8.80;;;;;;;0.76;100.00;97931.59;5112813;28;20523;-74
2022/01/24 04:24:03;;;;;;;10.37;9.07;;;;;;;0.66;100.00;97946.97;5079700;28;20486;-74
2022/01/24 04:26:30;;;;;;;9.70;8.80;;;;;;;0.52;100.00;97908.13;5112689;28;20524;-74
2022/01/24 04:28:58;;;;;;;9.37;8.43;;;;;;;0.78;100.00;97938.16;5095741;28;20920;-74
2022/01/24 04:31:25;;;;;;;12.53;10.63;;;;;;;0.77;100.00;97952.19;5095604;28;20525;-74
2022/01/24 04:33:52;;;;;;;11.00;9.30;;;;;;;0.77;100.00;97954.81;5095132;28;20466;-75
2022/01/24 04:36:20;;;;;;;14.40;11.67;;;;;;;0.59;100.00;97937.44;5111558;28;20498;-74
2022/01/24 04:38:47;;;;;;;12.07;8.97;;;;;;;0.60;100.00;97940.84;5095366;28;20557;-74
2022/01/24 04:41:25;;;;;;;10.27;7.67;;;;;;;0.44;100.00;97925.88;5095519;28;20481;-74
2022/01/24 04:56:43;;;;;;;15.23;11.47;;;;;;;0.63;100.00;97950.81;5113249;28;20450;-74
2022/01/24 04:59:10;;;;;;;12.17;10.37;;;;;;;0.74;100.00;97957.84;5111795;28;20434;-74
2022/01/24 05:01:37;;;;;;;15.57;10.73;;;;;;;0.42;100.00;97909.69;5095071;28;20476;-74
2022/01/24 05:04:04;;;;;;;15.87;13.60;;;;;;;0.54;100.00;97941.75;5113494;28;20457;-75
2022/01/24 05:06:30;;;;;;;21.17;14.43;;;;;;;0.54;100.00;97928.72;5112840;28;20533;-74
2022/01/24 05:08:57;;;;;;;17.37;12.00;;;;;;;0.34;100.00;97913.38;5112100;28;20556;-74
2022/01/24 05:12:31;;;;;;;15.40;12.20;;;;;;;0.60;100.00;97943.44;5111921;28;20473;-74
2022/01/24 05:25:21;;;;;;;17.20;12.93;;;;;;;0.57;100.00;97941.28;5111814;28;20450;-75
2022/01/24 05:27:47;;;;;;;17.40;13.43;;;;;;;0.69;100.00;97952.53;5111703;28;20482;-75
2022/01/24 05:30:15;;;;;;;18.07;13.00;;;;;;;0.23;100.00;97875.91;5112932;28;20427;-75
2022/01/24 05:32:41;;;;;;;16.93;12.77;;;;;;;0.69;100.00;97949.13;5111640;28;20438;-75
2022/01/24 05:35:08;;;;;;;16.70;12.33;;;;;;;0.37;100.00;97899.13;5113219;28;20437;-74
2022/01/24 05:37:35;;;;;;;13.93;11.33;;;;;;;0.29;100.00;97879.44;5113096;28;20533;-75
2022/01/24 05:40:02;;;;;;;14.90;11.97;;;;;;;0.77;100.00;97948.81;5111775;28;20438;-74
2022/01/24 05:42:29;;;;;;;16.47;13.60;;;;;;;0.45;100.00;97922.25;5111431;28;20495;-75
2022/01/24 05:44:58;;;;;;;16.67;14.67;;;;;;;0.56;100.00;97932.69;5113071;28;20466;-74
2022/01/24 05:47:25;;;;;;;20.67;14.37;;;;;;;0.70;100.00;97961.94;5112679;28;20458;-75
2022/01/24 05:49:51;;;;;;;18.90;15.20;;;;;;;0.43;100.00;97919.06;5112663;28;20458;-75
2022/01/24 05:52:18;;;;;;;18.37;13.93;;;;;;;0.54;100.00;97928.72;5111302;28;20460;-75
2022/01/24 05:54:45;;;;;;;17.97;14.13;;;;;;;0.33;100.00;97901.41;5111328;28;20512;-75
2022/01/24 05:57:11;;;;;;;21.23;13.93;;;;;;;0.73;100.00;97955.47;5094231;28;20470;-74
2022/01/24 05:59:38;;;;;;;15.50;12.90;;;;;;;0.69;100.00;97942.13;5112463;28;20927;-74
2022/01/24 06:02:05;;;;;;;19.77;13.80;;;;;;;0.79;100.00;97957.19;5112162;28;20462;-75
2022/01/24 06:04:32;;;;;;;17.97;13.37;;;;;;;0.86;100.00;97963.88;5111389;28;20514;-76
2022/01/24 06:06:59;;;;;;;17.27;12.97;;;;;;;0.74;100.00;97944.84;5093987;28;20561;-76
2022/01/24 06:09:26;;;;;;;16.40;14.17;;;;;;;0.42;100.00;97912.28;5110338;28;20448;-75
2022/01/24 06:11:52;;;;;;;16.30;12.00;;;;;;;0.62;100.00;97928.41;5093539;28;20810;-77
2022/01/24 06:14:19;;;;;;;19.70;14.03;;;;;;;0.70;100.00;97938.50;5093440;28;20462;-76
2022/01/24 06:16:46;;;;;;;17.60;13.30;;;;;;;0.67;100.00;97928.53;5111411;28;20456;-76
2022/01/24 06:19:13;;;;;;;19.80;13.90;;;;;;;0.81;100.00;97952.56;5111664;28;20794;-76
2022/01/24 06:21:40;;;;;;;15.03;11.93;;;;;;;0.52;100.00;97920.31;5093579;28;21026;-76
2022/01/24 06:24:08;;;;;;;16.90;13.57;;;;;;;0.64;100.00;97938.59;5094047;28;20435;-77
2022/01/24 06:26:35;;;;;;;14.60;12.90;;;;;;;0.69;100.00;97955.13;5094425;28;20493;-78
2022/01/24 06:29:02;;;;;;;15.37;12.33;;;;;;;0.65;100.00;97927.94;5112435;28;20488;-78
2022/01/24 06:31:29;;;;;;;20.73;14.47;;;;;;;0.69;100.00;97941.34;5094181;28;20443;-77
2022/01/24 06:33:56;;;;;;;20.00;13.70;;;;;;;0.59;100.00;97937.44;5094090;28;20470;-75
2022/01/24 06:36:24;;;;;;;18.17;13.70;;;;;;;0.82;100.00;97965.34;5094136;28;20439;-75
2022/01/24 06:38:51;;;;;;;15.83;14.00;;;;;;;0.75;100.00;97962.03;5094108;28;20462;-75
2022/01/24 06:41:24;;;;;;;17.00;12.60;;;;;;;0.79;100.00;97965.00;5110693;28;20872;-75
2022/01/24 06:43:51;;;;;;;17.80;14.60;;;;;;;0.66;100.00;97959.97;5110994;28;20531;-75
2022/01/24 06:46:19;;;;;;;14.73;12.23;;;;;;;0.72;100.00;97974.72;5110917;28;20445;-75
2022/01/24 06:48:45;;;;;;;20.70;13.23;;;;;;;0.53;100.00;97934.94;5093849;28;20487;-75
2022/01/24 06:51:13;;;;;;;15.83;12.93;;;;;;;0.78;100.00;97986.84;5110865;28;20977;-75
2022/01/24 06:53:41;;;;;;;14.90;12.67;;;;;;;0.54;100.00;97957.34;5110675;28;20455;-75
2022/01/24 06:56:08;;;;;;;19.23;13.57;;;;;;;0.63;100.00;97979.44;5112108;28;20517;-75
2022/01/24 06:58:35;;;;;;;16.93;12.57;;;;;;;0.69;100.00;97980.38;5095199;28;20517;-75
2022/01/24 07:01:03;;;;;;;18.63;13.33;;;;;;;0.72;100.00;97987.72;5114314;28;20438;-76
2022/01/24 07:03:30;;;;;;;15.70;12.83;;;;;;;1.12;100.00;98006.97;5114357;28;20449;-75
2022/01/24 07:05:57;;;;;;;15.00;13.47;;;;;;;0.93;100.00;97981.22;5114088;28;20495;-77
2022/01/24 07:08:24;;;;;;;14.67;12.17;;;;;;;0.89;100.00;97986.06;5114074;28;20469;-77
2022/01/24 07:10:51;;;;;;;17.00;13.20;;;;;;;0.87;100.00;97962.06;5115263;27;20437;-77
2022/01/24 07:13:20;;;;;;;15.63;12.40;;;;;;;1.12;100.00;98004.38;5096850;28;20434;-77
2022/01/24 07:15:52;;;;;;;17.40;12.00;;;;;;;1.08;100.00;98012.84;5097226;28;20513;-77
2022/01/24 07:20:56;;;;;;;19.40;12.17;;;;;;;0.97;100.00;98022.22;5114107;28;20934;-77
2022/01/24 07:23:24;;;;;;;14.07;11.67;;;;;;;0.98;100.00;98023.81;5115458;28;20427;-77
2022/01/24 07:25:55;;;;;;;13.90;11.60;;;;;;;0.85;100.00;98011.78;5114307;28;21138;-77
2022/01/24 07:28:22;;;;;;;11.80;10.60;;;;;;;0.78;100.00;97999.84;5113805;28;20454;-77
2022/01/24 07:30:49;;;;;;;12.40;11.23;;;;;;;-0.11;100.00;97872.16;5097016;28;20914;-77
2022/01/24 07:33:16;;;;;;;14.13;11.37;;;;;;;0.88;100.00;98007.91;5113598;28;20476;-77
2022/01/24 07:35:44;;;;;;;13.13;11.30;;;;;;;0.86;100.00;98008.16;5113725;28;20430;-77
2022/01/24 07:38:11;;;;;;;15.63;11.60;;;;;;;0.92;100.00;98003.06;5096441;28;20501;-77
2022/01/24 07:40:42;;;;;;;13.00;11.43;;;;;;;1.09;100.00;98030.06;5096641;28;20970;-77
2022/01/24 07:45:36;;;;;;;19.20;16.07;;;;;;;1.28;100.00;98031.56;5114880;28;20465;-77
2022/01/24 07:48:04;;;;;;;21.20;16.93;;;;;;;1.34;100.00;98035.91;5096351;28;20462;-77
2022/01/24 07:50:31;;;;;;;18.87;15.47;;;;;;;1.28;100.00;98036.78;5096638;28;20914;-77
2022/01/24 07:53:00;;;;;;;18.10;15.23;;;;;;;1.55;100.00;98046.78;5114839;28;20517;-77
2022/01/24 07:55:27;;;;;;;15.37;13.60;;;;;;;1.08;100.00;97989.41;5095943;28;20492;-76
2022/01/24 07:57:54;;;;;;;20.43;14.23;;;;;;;1.12;100.00;98000.97;5113205;28;20488;-76
2022/01/24 08:00:20;;;;;;;16.23;13.30;;;;;;;1.07;100.00;98000.81;5113166;28;20442;-77
2022/01/24 08:02:47;;;;;;;15.67;13.97;;;;;;;0.80;100.00;97979.59;5114478;28;20446;-77
2022/01/24 08:05:14;;;;;;;15.53;13.77;;;;;;;1.21;100.00;98045.72;5113081;28;20477;-77
2022/01/24 08:07:41;;;;;;;17.70;13.87;;;;;;;1.17;100.00;98046.16;5113330;28;20460;-77
2022/01/24 08:10:08;;;;;;;18.60;14.73;;;;;;;1.14;100.00;98048.41;5112789;28;20485;-77
2022/01/24 08:12:38;;;;;;;17.27;14.57;;;;;;;1.14;100.00;98051.81;5112746;28;20956;-77
2022/01/24 08:15:06;;;;;;;14.47;12.77;;;;;;;1.16;100.00;98060.19;5113926;28;20534;-77
2022/01/24 08:17:32;;;;;;;17.07;10.87;;;;;;;1.11;100.00;98043.66;5112551;28;20451;-77
2022/01/24 08:19:59;;;;;;;15.30;11.40;;;;;;;1.20;100.00;98055.31;5112641;28;20934;-77
2022/01/24 08:22:26;;;;;;;13.70;11.00;;;;;;;1.00;100.00;98024.38;5095759;28;20435;-77
2022/01/24 08:24:52;;;;;;;12.93;10.77;;;;;;;0.99;100.00;98014.97;5095647;28;20476;-77
2022/01/24 08:27:19;;;;;;;12.20;9.60;;;;;;;0.88;100.00;97993.09;5113894;28;20478;-77
2022/01/24 08:29:49;;;;;;;12.73;10.70;;;;;;;1.26;100.00;98056.28;5112687;28;20491;-77
2022/01/24 08:32:18;;;;;;;11.53;8.90;;;;;;;1.11;100.00;98022.81;5112559;28;20782;-77
2022/01/24 08:34:45;;;;;;;11.33;8.27;;;;;;;0.53;100.00;97940.91;5113550;28;20542;-77
2022/01/24 08:37:30;;;;;;;11.63;9.60;;;;;;;1.38;100.00;98062.31;5112231;28;20454;-77
2022/01/24 08:40:00;;;;;;;10.17;9.27;;;;;;;1.14;100.00;98023.16;5113688;28;20771;-77
2022/01/24 08:47:56;;;;;;;11.10;9.37;;;;;;;1.12;100.00;98029.63;5111896;28;20828;-77
2022/01/24 08:50:26;;;;;;;11.10;8.20;;;;;;;1.14;100.00;98030.97;5113421;28;20559;-77
2022/01/24 08:52:59;;;;;;;9.53;8.63;;;;;;;1.27;100.00;98065.66;5113721;28;20504;-77
2022/01/24 08:55:27;;;;;;;16.73;10.53;;;;;;;1.28;100.00;98067.25;5095106;28;20451;-77
2022/01/24 08:57:55;;;;;;;10.87;9.67;;;;;;;1.13;100.00;98046.84;5111919;28;20446;-77
2022/01/24 09:00:22;;;;;;;11.23;10.03;;;;;;;0.94;100.00;98014.88;5112025;28;20878;-77
2022/01/24 09:02:50;;;;;;;12.87;9.50;;;;;;;1.06;100.00;98038.31;5112246;28;20448;-77
2022/01/24 09:05:19;;;;;;;11.43;10.20;;;;;;;1.15;100.00;98053.41;5113579;28;20427;-77
2022/01/24 09:07:45;;;;;;;9.63;8.70;;;;;;;0.77;100.00;97986.03;5112185;28;20553;-77
2022/01/24 09:10:12;;;;;;;13.77;10.50;;;;;;;1.30;100.00;98063.41;5095617;28;20480;-77
2022/01/24 09:12:39;;;;;;;12.10;9.40;;;;;;;1.12;100.00;98032.22;5095436;28;20456;-77
2022/01/24 09:15:06;;;;;;;10.90;9.37;;;;;;;1.32;100.00;98063.19;5112855;28;20490;-77
2022/01/24 09:17:37;;;;;;;9.00;7.77;;;;;;;1.13;100.00;98045.03;5112895;28;21048;-77
2022/01/24 09:20:05;;;;;;;12.00;9.63;;;;;;;1.10;100.00;98040.25;5113119;28;20466;-77
2022/01/24 09:22:46;;;;;;;11.13;9.17;;;;;;;1.33;100.00;98072.56;5115402;28;20596;-77
2022/01/24 09:25:15;;;;;;;11.70;9.87;;;;;;;1.28;100.00;98055.03;5097706;28;20464;-77
2022/01/24 09:27:43;;;;;;;12.20;9.53;;;;;;;1.27;100.00;98045.63;5113552;28;20566;-77
2022/01/24 09:30:13;;;;;;;10.43;9.20;;;;;;;1.49;100.00;98061.53;5113521;28;20434;-77
2022/01/24 09:32:40;;;;;;;9.73;8.63;;;;;;;1.32;100.00;98052.75;5116111;28;20794;-76
2022/01/24 09:35:09;;;;;;;12.27;9.50;;;;;;;1.39;100.00;98056.06;5117311;28;20474;-77
2022/01/24 09:37:37;;;;;;;10.57;9.47;;;;;;;1.48;100.00;98073.78;5129857;28;20451;-77
2022/01/24 09:40:05;;;;;;;11.30;10.10;;;;;;;1.29;100.00;98048.00;5099392;28;20463;-77
2022/01/24 09:42:32;;;;;;;10.70;9.40;;;;;;;1.40;100.00;98081.91;5112180;28;21014;-77
2022/01/24 09:44:59;;;;;;;18.40;9.80;;;;;;;1.47;100.00;98084.41;5095166;28;20437;-77
2022/01/24 09:47:27;;;;;;;10.60;8.50;;;;;;;1.52;100.00;98073.31;5111568;28;20837;-77
2022/01/24 09:49:54;;;;;;;8.87;7.93;;;;;;;1.59;100.00;98085.22;5111628;28;20927;-77
2022/01/24 09:52:21;;;;;;;10.00;9.00;;;;;;;1.40;100.00;98048.03;5094477;28;21031;-77
2022/01/24 09:54:48;;;;;;;12.97;8.87;;;;;;;1.40;100.00;98039.41;5094503;28;20498;-77
2022/01/24 09:57:14;;;;;;;9.37;8.40;;;;;;;1.49;100.00;98051.09;5111629;28;20553;-77
2022/01/24 09:59:41;;;;;;;14.43;8.40;;;;;;;1.47;100.00;98050.53;5094451;28;20495;-77
2022/01/24 10:02:08;;;;;;;9.27;8.27;;;;;;;1.70;100.00;98063.56;5111038;28;20434;-77
2022/01/24 10:04:35;;;;;;;9.57;7.37;;;;;;;1.70;100.00;98076.59;5111613;28;20833;-77
2022/01/24 10:07:12;;;;;;;9.80;8.30;;;;;;;1.47;100.00;98037.50;5111193;28;20458;-77
2022/01/24 10:09:47;;;;;;;11.03;9.87;;;;;;;1.56;100.00;98062.19;5094298;28;20915;-77
2022/01/24 10:18:06;;;;;;;8.90;8.00;;;;;;;1.59;100.00;98048.72;5111308;28;20457;-77
2022/01/24 10:20:38;;;;;;;9.00;8.10;;;;;;;1.78;100.00;98073.69;5094853;28;20431;-77
2022/01/24 10:23:21;;;;;;;9.63;8.40;;;;;;;1.84;100.00;98068.56;5112354;28;20458;-77
2022/01/24 10:26:04;;;;;;;9.40;8.60;;;;;;;1.89;100.00;98068.69;5095003;28;20438;-77
2022/01/24 10:28:38;;;;;;;6.93;6.07;;;;;;;1.77;100.00;98064.28;5110914;28;20462;-76
2022/01/24 10:31:12;;;;;;;9.00;7.10;;;;;;;1.86;100.00;98066.53;5110789;28;20435;-76
2022/01/24 10:36:53;;;;;;;10.53;7.27;;;;;;;2.00;100.00;98066.09;5074703;28;20460;-77
2022/01/24 10:42:52;;;;;;;6.80;4.23;;;;;;;1.99;100.00;98067.09;5114795;28;20525;-77
2022/01/24 10:45:23;;;;;;;6.60;4.97;;;;;;;1.87;100.00;98044.63;5097920;28;20435;-77
2022/01/24 10:47:52;;;;;;;5.10;3.50;;;;;;;1.92;100.00;98031.72;5115737;27;20855;-77
2022/01/24 10:50:23;;;;;;;5.63;3.63;;;;;;;2.07;100.00;98066.75;5114827;28;20891;-76
2022/01/24 10:52:51;;;;;;;3.83;3.40;;;;;;;1.98;100.00;98038.63;5097732;28;20414;-77
2022/01/24 10:55:24;;;;;;;4.90;3.70;;;;;;;1.82;100.00;98026.28;5117861;28;20545;-77
2022/01/24 10:58:04;;;;;;;3.27;3.07;;;;;;;2.15;100.00;98063.00;5117412;28;20446;-77
2022/01/24 11:00:32;;;;;;;3.90;3.60;;;;;;;1.96;100.00;98027.63;5116251;28;20485;-77
2022/01/24 11:03:00;;;;;;;3.90;3.03;;;;;;;2.11;100.00;98048.81;5115479;28;20430;-77
2022/01/24 11:05:39;;;;;;;7.10;3.27;;;;;;;2.11;100.00;98050.63;5115378;28;20802;-77
2022/01/24 11:08:15;;;;;;;4.30;4.00;;;;;;;2.02;100.00;98055.44;5116454;28;20449;-77
2022/01/24 11:10:46;;;;;;;4.43;4.03;;;;;;;2.05;100.00;98054.97;5098026;28;20434;-77
2022/01/24 11:13:18;;;;;;;4.83;3.53;;;;;;;1.87;100.00;98011.56;5114889;28;20855;-77
2022/01/24 11:15:55;;;;;;;6.50;3.87;;;;;;;2.10;100.00;98042.03;5115072;28;20561;-77
2022/01/24 11:18:28;;;;;;;4.40;4.00;;;;;;;1.75;100.00;97985.50;5114743;28;20454;-77
2022/01/24 11:21:02;;;;;;;5.23;3.53;;;;;;;1.80;100.00;97997.03;5114436;28;20471;-77
2022/01/24 11:23:29;;;;;;;5.90;3.53;;;;;;;1.85;100.00;97995.31;5114172;28;20460;-77
2022/01/24 11:25:57;;;;;;;4.20;3.80;;;;;;;2.12;100.00;98034.75;5114614;28;20475;-77
2022/01/24 11:28:25;;;;;;;4.20;3.57;;;;;;;1.99;100.00;97999.28;5114684;28;20450;-77
2022/01/24 11:31:19;;;;;;;4.83;3.37;;;;;;;2.10;100.00;98010.72;5099341;28;20445;-77
2022/01/24 11:33:55;;;;;;;5.53;5.10;;;;;;;2.15;100.00;98010.84;5113886;28;20460;-76
2022/01/24 11:36:36;;;;;;;5.87;4.13;;;;;;;2.00;100.00;97974.81;5096894;28;20561;-75
2022/01/24 11:39:04;;;;;;;7.47;3.40;;;;;;;2.21;100.00;98017.72;5097007;28;20465;-75
2022/01/24 11:41:33;;;;;;;4.80;4.00;;;;;;;1.95;100.00;97973.88;5113912;28;20966;-75
2022/01/24 11:44:10;;;;;;;5.97;3.63;;;;;;;2.23;100.00;98009.66;5096227;28;20442;-75
2022/01/24 11:46:48;;;;;;;5.10;4.20;;;;;;;2.35;100.00;98016.44;5114817;28;20419;-76
2022/01/24 11:49:27;;;;;;;4.50;3.50;;;;;;;2.35;100.00;98021.66;5113298;28;20449;-75
2022/01/24 11:52:11;;;;;;;4.53;3.67;;;;;;;2.29;100.00;98011.38;5114541;28;20434;-76
2022/01/24 11:57:27;;;;;;;7.97;4.20;;;;;;;2.67;100.00;98013.38;5114844;28;20470;-76
2022/01/24 12:00:20;;;;;;;4.30;3.83;;;;;;;2.48;100.00;98006.75;5113185;28;20817;-76
2022/01/24 12:02:51;;;;;;;6.90;4.60;;;;;;;2.53;100.00;98015.47;5104430;28;20442;-76
2022/01/24 12:05:28;;;;;;;4.10;3.70;;;;;;;2.34;100.00;98001.03;5113283;28;20510;-76
2022/01/24 12:08:04;;;;;;;4.63;3.93;;;;;;;2.67;100.00;98005.53;5114234;28;20442;-76
2022/01/24 12:10:51;;;;;;;4.40;4.00;;;;;;;2.71;100.00;98004.06;5112843;28;20481;-76
2022/01/24 12:13:28;;;;;;;4.07;3.67;;;;;;;2.66;100.00;97993.50;5118162;28;20999;-76
2022/01/24 12:15:58;;;;;;;4.20;3.87;;;;;;;2.72;100.00;98010.88;5114012;28;20461;-76
2022/01/24 12:18:26;;;;;;;6.37;4.37;;;;;;;2.66;100.00;98001.34;5114091;28;20446;-76
2022/01/24 12:21:05;;;;;;;6.10;4.00;;;;;;;2.62;100.00;98010.69;5115516;28;20927;-76
2022/01/24 12:23:43;;;;;;;6.87;3.63;;;;;;;2.33;100.00;97968.13;5113556;28;20449;-76
2022/01/24 12:26:36;;;;;;;5.20;3.43;;;;;;;2.35;100.00;97990.34;5114073;28;20468;-77
2022/01/24 12:29:07;;;;;;;4.50;3.33;;;;;;;2.40;100.00;98002.69;5115173;28;20410;-77
2022/01/24 12:31:50;;;;;;;10.03;4.40;;;;;;;2.57;100.00;98000.16;5114368;28;20415;-77
2022/01/24 12:34:26;;;;;;;4.37;3.97;;;;;;;2.52;100.00;97995.63;5113478;28;20831;-77
2022/01/24 12:37:00;;;;;;;4.67;4.17;;;;;;;2.23;100.00;97967.91;5113447;28;20875;-75
2022/01/24 12:39:52;;;;;;;4.33;4.03;;;;;;;2.37;100.00;98001.34;5113696;28;20895;-76
2022/01/24 12:42:35;;;;;;;5.37;4.50;;;;;;;2.34;100.00;97988.75;5113656;28;20510;-75
2022/01/24 12:48:12;;;;;;;8.23;5.97;;;;;;;2.34;100.00;97995.81;5112239;28;20502;-75
2022/01/24 12:50:48;;;;;;;5.80;4.30;;;;;;;2.07;100.00;97956.41;5112327;28;20802;-75
2022/01/24 12:53:16;;;;;;;5.93;5.30;;;;;;;2.15;100.00;97974.31;5112866;28;20468;-75
2022/01/24 12:55:44;;;;;;;7.10;5.23;;;;;;;2.14;100.00;97972.72;5094934;28;20501;-75
2022/01/24 12:58:11;;;;;;;10.27;6.73;;;;;;;2.12;100.00;97953.88;5113716;28;20999;-77
2022/01/24 13:00:44;;;;;;;7.83;5.20;;;;;;;2.26;100.00;97975.28;5095974;28;20478;-75
2022/01/24 13:03:12;;;;;;;6.47;4.50;;;;;;;2.26;100.00;97975.28;5112730;28;20446;-76
2022/01/24 13:05:39;;;;;;;6.27;5.00;;;;;;;2.46;100.00;97974.88;5112437;28;20797;-76
2022/01/24 13:08:06;;;;;;;3.80;3.50;;;;;;;2.52;100.00;97987.00;5112429;28;20446;-75
2022/01/24 13:10:33;;;;;;;4.63;4.23;;;;;;;2.02;100.00;97919.78;5095247;28;20469;-76
2022/01/24 13:13:06;;;;;;;5.20;3.83;;;;;;;2.41;100.00;97980.81;5096384;28;20477;-77
2022/01/24 13:21:22;;;;;;;4.43;4.03;;;;;;;2.30;100.00;97985.03;5112707;28;20464;-77
2022/01/24 13:23:53;;;;;;;3.90;3.50;;;;;;;2.37;100.00;97980.47;5112369;28;20848;-77
2022/01/24 13:26:21;;;;;;;7.97;4.10;;;;;;;2.52;100.00;97985.19;5111815;28;20426;-77
2022/01/24 13:28:48;;;;;;;3.60;3.30;;;;;;;2.08;100.00;97929.28;5112710;28;20461;-76
2022/01/24 13:31:14;;;;;;;5.43;4.80;;;;;;;2.29;100.00;97978.25;5112852;28;20475;-77
2022/01/24 13:33:46;;;;;;;4.50;4.10;;;;;;;2.11;100.00;97936.63;5096283;28;20537;-77
2022/01/24 13:36:16;;;;;;;4.00;3.70;;;;;;;2.29;100.00;97967.81;5111765;28;20447;-77
2022/01/24 13:38:48;;;;;;;6.63;4.63;;;;;;;2.48;100.00;97978.84;5112406;28;21015;-77
2022/01/24 13:41:21;;;;;;;5.90;4.60;;;;;;;2.42;100.00;97971.16;5112133;28;20441;-77
2022/01/24 13:43:47;;;;;;;4.80;4.43;;;;;;;2.34;100.00;97975.72;5112964;28;20442;-77
2022/01/24 13:46:26;;;;;;;6.10;4.60;;;;;;;2.16;100.00;97944.59;5113045;28;20435;-77
2022/01/24 13:49:01;;;;;;;3.57;3.07;;;;;;;2.30;100.00;97972.00;5112718;28;20454;-77
2022/01/24 13:51:37;;;;;;;3.83;3.47;;;;;;;2.19;100.00;97977.25;5095824;28;20938;-77
2022/01/24 13:54:09;;;;;;;4.67;4.10;;;;;;;2.00;100.00;97953.09;5096762;28;20442;-77
2022/01/24 13:56:57;;;;;;;3.93;3.63;;;;;;;2.11;100.00;97978.38;5095764;28;20443;-77
2022/01/24 13:59:26;;;;;;;4.20;3.80;;;;;;;2.31;100.00;97981.41;5095514;28;20454;-77